Time;durP1;ratioP1;P1;durP2;ratioP2;P2;SDS_P1;SDS_P2;PMS_P1;PMS_P2;Temp;Humidity;BMP_temperature;BMP_pressure;BME280_temperature;BME280_humidity;BME280_pressure;Samples;Min_cycle;Max_cycle;Signal;HPM_P1;HPM_P2
2021/12/24 00:00:51;;;;;;;36.38;16.10;;;;;;;3.49;45.43;101263.13;4990179;28;20048;-81
2021/12/24 00:03:18;;;;;;;33.85;13.80;;;;;;;3.52;45.71;101263.88;4996082;28;20469;-81
2021/12/24 00:05:43;;;;;;;35.22;13.02;;;;;;;3.50;45.62;101270.19;4978316;28;20536;-81
2021/12/24 00:08:09;;;;;;;27.30;11.90;;;;;;;3.48;45.56;101262.28;4981126;28;20031;-80
2021/12/24 00:10:36;;;;;;;24.08;10.60;;;;;;;3.48;45.60;101264.97;4976138;28;20161;-80
2021/12/24 00:13:08;;;;;;;33.25;11.90;;;;;;;3.47;46.07;101278.28;4978386;28;20110;-80
2021/12/24 00:15:52;;;;;;;38.90;12.98;;;;;;;3.31;45.90;101243.50;4976562;28;20031;-83
2021/12/24 00:37:23;;;;;;;31.58;13.13;;;;;;;2.97;46.66;101212.13;4984955;28;20126;-82
2021/12/24 00:40:03;;;;;;;27.88;13.10;;;;;;;2.91;46.84;101196.44;4975734;28;20045;-82
2021/12/24 00:42:29;;;;;;;21.35;10.85;;;;;;;2.84;46.75;101205.63;4990202;28;20031;-83
2021/12/24 00:44:55;;;;;;;33.75;12.55;;;;;;;2.79;46.85;101190.75;4976803;28;20086;-79
2021/12/24 00:47:20;;;;;;;20.63;10.43;;;;;;;2.87;47.09;101196.66;4990068;28;20050;-81
2021/12/24 00:49:46;;;;;;;52.92;25.02;;;;;;;2.83;47.13;101193.25;4996653;28;20038;-81
2021/12/24 00:55:09;;;;;;;21.20;10.15;;;;;;;2.82;46.91;101180.88;5006320;28;20037;-85
2021/12/24 00:57:44;;;;;;;18.33;9.95;;;;;;;2.91;46.86;101179.63;4996894;28;20451;-85
2021/12/24 01:00:12;;;;;;;18.92;10.60;;;;;;;2.91;47.11;101185.81;4995515;28;20038;-85
2021/12/24 01:02:38;;;;;;;21.45;11.68;;;;;;;2.97;47.00;101174.94;4995064;28;20026;-83
2021/12/24 01:05:05;;;;;;;27.00;10.20;;;;;;;2.93;47.00;101162.75;4996049;28;20033;-84
2021/12/24 01:07:30;;;;;;;24.23;10.13;;;;;;;3.03;47.05;101148.13;4995409;28;20124;-84
2021/12/24 01:09:56;;;;;;;23.42;11.52;;;;;;;3.05;46.74;101159.56;4995758;28;20026;-84
2021/12/24 01:12:23;;;;;;;27.17;10.93;;;;;;;3.07;47.15;101144.41;4979999;28;20042;-84
2021/12/24 01:14:49;;;;;;;32.00;10.85;;;;;;;2.95;46.93;101129.00;4977904;28;20022;-84
2021/12/24 01:17:34;;;;;;;42.80;12.13;;;;;;;2.95;46.98;101139.63;4995784;28;20041;-83
2021/12/24 01:20:08;;;;;;;32.58;13.50;;;;;;;2.94;47.15;101132.56;4994592;28;20030;-83
2021/12/24 01:25:19;;;;;;;23.98;12.38;;;;;;;2.79;47.26;101113.75;5011333;28;20046;-82
2021/12/24 01:38:33;;;;;;;25.05;11.98;;;;;;;2.76;47.67;101088.19;4994575;28;20432;-84
2021/12/24 01:43:26;;;;;;;29.55;12.23;;;;;;;2.72;48.15;101078.63;4994539;28;20034;-84
2021/12/24 01:45:55;;;;;;;29.88;12.43;;;;;;;2.74;47.93;101071.47;4993756;28;20033;-84
2021/12/24 01:48:21;;;;;;;29.27;13.10;;;;;;;2.76;47.82;101058.97;4994025;28;20022;-84
2021/12/24 01:50:48;;;;;;;25.75;12.10;;;;;;;2.77;48.21;101050.09;4987955;28;20436;-84
2021/12/24 01:53:21;;;;;;;44.10;14.55;;;;;;;2.76;47.71;101048.34;4994353;28;20085;-85
2021/12/24 01:55:48;;;;;;;33.75;11.60;;;;;;;2.79;47.70;101053.53;4993615;28;20049;-84
2021/12/24 01:58:19;;;;;;;30.38;14.35;;;;;;;2.80;47.65;101044.63;4976235;28;20022;-84
2021/12/24 02:00:47;;;;;;;35.22;15.52;;;;;;;2.87;47.74;101053.22;4976605;28;20022;-85
2021/12/24 02:03:13;;;;;;;30.02;12.20;;;;;;;2.93;47.09;101045.84;4994082;28;20015;-83
2021/12/24 02:05:39;;;;;;;23.50;11.13;;;;;;;3.01;46.84;101037.53;4994047;28;20106;-84
2021/12/24 02:08:06;;;;;;;22.15;9.85;;;;;;;2.95;46.61;101028.03;4994095;28;20053;-85
2021/12/24 02:10:33;;;;;;;21.20;10.32;;;;;;;2.91;47.00;101025.56;4994076;28;20034;-84
2021/12/24 02:12:59;;;;;;;22.65;10.27;;;;;;;3.02;47.16;101013.56;4993594;28;20029;-84
2021/12/24 02:28:41;;;;;;;20.85;9.57;;;;;;;3.38;45.66;100988.91;4997103;28;20082;-84
2021/12/24 02:31:17;;;;;;;20.25;9.70;;;;;;;3.49;45.24;100984.81;4997940;28;20027;-83
2021/12/24 02:33:43;;;;;;;22.25;9.27;;;;;;;3.59;44.86;100966.63;4997601;28;20026;-83
2021/12/24 02:36:09;;;;;;;20.83;9.63;;;;;;;3.72;44.79;100970.44;4997446;28;20077;-84
2021/12/24 02:38:36;;;;;;;18.65;8.82;;;;;;;3.79;44.85;100958.59;4996991;28;20029;-84
2021/12/24 02:41:02;;;;;;;17.60;9.02;;;;;;;3.82;44.55;100953.13;4997965;28;20034;-84
2021/12/24 02:43:28;;;;;;;18.15;9.55;;;;;;;3.91;44.32;100942.03;4998405;28;20021;-84
2021/12/24 02:45:57;;;;;;;17.27;8.88;;;;;;;3.93;44.60;100956.09;4997615;28;20022;-84
2021/12/24 02:48:55;;;;;;;23.98;10.80;;;;;;;4.00;44.05;100944.22;4997791;28;20098;-84
2021/12/24 02:54:02;;;;;;;31.02;9.85;;;;;;;3.99;44.08;100923.88;4997352;28;20412;-84
2021/12/24 02:56:31;;;;;;;34.90;18.13;;;;;;;4.10;43.67;100928.63;4997488;28;20033;-83
2021/12/24 02:59:00;;;;;;;14.55;8.57;;;;;;;4.14;43.57;100939.06;4997722;28;20022;-85
2021/12/24 03:01:33;;;;;;;18.23;9.07;;;;;;;4.14;43.40;100939.06;4997857;28;20026;-83
2021/12/24 03:03:59;;;;;;;31.83;12.65;;;;;;;4.15;43.24;100940.81;4998069;28;20022;-83
2021/12/24 03:06:30;;;;;;;42.28;17.25;;;;;;;4.16;42.71;100942.50;4998014;28;20029;-83
2021/12/24 03:08:56;;;;;;;40.65;14.30;;;;;;;4.06;42.52;100927.97;5001553;28;20022;-84
2021/12/24 03:11:23;;;;;;;24.88;11.00;;;;;;;3.99;42.29;100926.53;5019243;28;20038;-83
2021/12/24 03:13:49;;;;;;;24.95;11.98;;;;;;;4.07;42.63;100926.13;4997396;28;20026;-84
2021/12/24 03:16:15;;;;;;;26.20;11.50;;;;;;;4.10;42.30;100916.19;4998048;28;20018;-84
2021/12/24 03:18:42;;;;;;;21.52;10.13;;;;;;;4.08;42.78;100917.22;4997259;28;20030;-85
2021/12/24 03:21:20;;;;;;;20.00;11.98;;;;;;;4.16;42.44;100902.56;4996835;28;22136;-84
2021/12/24 03:26:32;;;;;;;67.55;24.17;;;;;;;4.18;42.61;100900.72;4997282;28;20038;-84
2021/12/24 03:28:58;;;;;;;71.63;28.95;;;;;;;4.16;42.53;100891.09;4995970;28;20042;-84
2021/12/24 03:31:23;;;;;;;72.82;28.27;;;;;;;4.21;42.75;100900.56;4996715;28;20030;-83
2021/12/24 03:33:53;;;;;;;68.93;25.98;;;;;;;4.23;42.80;100896.00;4996204;28;20429;-84
2021/12/24 03:36:20;;;;;;;87.13;27.88;;;;;;;4.38;42.56;100895.22;4980867;28;20033;-84
2021/12/24 03:38:46;;;;;;;85.15;27.00;;;;;;;4.45;42.33;100885.13;4997614;28;20544;-83
2021/12/24 03:41:11;;;;;;;52.67;19.65;;;;;;;4.45;42.18;100878.94;4999688;28;20057;-83
2021/12/24 03:43:37;;;;;;;43.67;16.13;;;;;;;4.47;42.22;100885.03;5000103;28;20096;-84
2021/12/24 03:46:09;;;;;;;49.50;16.80;;;;;;;4.48;42.76;100889.44;4999367;28;20022;-84
2021/12/24 03:48:46;;;;;;;38.17;17.17;;;;;;;4.51;42.47;100889.25;4998811;28;20102;-85
2021/12/24 03:56:31;;;;;;;36.70;15.63;;;;;;;4.54;41.81;100884.66;4976853;28;20106;-84
2021/12/24 03:58:57;;;;;;;29.05;11.73;;;;;;;4.49;42.16;100870.72;4976507;28;20022;-84
2021/12/24 04:01:22;;;;;;;19.23;11.00;;;;;;;4.57;41.96;100857.84;4976163;28;20404;-84
2021/12/24 04:03:48;;;;;;;18.70;10.38;;;;;;;4.62;41.59;100854.91;4978975;28;20900;-83
2021/12/24 04:06:13;;;;;;;23.00;11.98;;;;;;;4.55;41.71;100849.09;4995841;28;20407;-85
2021/12/24 04:08:39;;;;;;;49.80;22.70;;;;;;;4.41;41.84;100843.59;4996092;28;20033;-84
2021/12/24 04:11:05;;;;;;;23.98;14.70;;;;;;;4.30;41.78;100833.53;4995392;28;20026;-84
2021/12/24 04:13:31;;;;;;;20.17;11.27;;;;;;;4.20;41.68;100834.94;4995891;28;20027;-84
2021/12/24 04:15:57;;;;;;;18.70;11.73;;;;;;;4.15;42.22;100829.00;4995286;28;20027;-85
2021/12/24 04:18:51;;;;;;;32.20;14.27;;;;;;;4.05;42.29;100835.75;4995901;28;20030;-84
2021/12/24 04:26:45;;;;;;;24.77;10.32;;;;;;;4.16;42.64;100835.19;4996497;28;20037;-84
2021/12/24 04:29:11;;;;;;;17.75;9.65;;;;;;;4.21;42.48;100825.16;4996041;28;20018;-84
2021/12/24 04:31:55;;;;;;;64.53;35.97;;;;;;;4.31;42.53;100824.59;4995318;28;20101;-84
2021/12/24 04:34:25;;;;;;;21.60;11.52;;;;;;;4.28;42.36;100830.06;4996077;28;20049;-84
2021/12/24 05:01:10;;;;;;;19.25;10.93;;;;;;;4.44;42.34;100823.94;5016072;28;20081;-84
2021/12/24 05:02:03;;;;;;;17.90;10.63;;;;;;;4.50;42.63;100812.97;4961708;29;20097;-85
2021/12/24 05:04:26;;;;;;;21.90;12.20;;;;;;;4.51;42.60;100814.69;4948672;29;20560;-84
2021/12/24 05:06:57;;;;;;;24.73;11.20;;;;;;;4.52;42.92;100805.78;4973441;28;20425;-84
2021/12/24 05:09:24;;;;;;;25.92;11.27;;;;;;;4.53;43.28;100803.00;4995337;28;20149;-84
2021/12/24 05:11:50;;;;;;;23.80;11.85;;;;;;;4.55;43.14;100792.28;4995062;28;20023;-83
2021/12/24 05:14:16;;;;;;;22.67;12.25;;;;;;;4.67;42.90;100796.94;4994937;28;20022;-84
2021/12/24 05:16:47;;;;;;;40.72;15.55;;;;;;;4.66;42.70;100797.88;4995074;28;20088;-83
2021/12/24 05:21:49;;;;;;;24.42;12.23;;;;;;;4.82;42.75;100782.78;4997803;28;20030;-84
2021/12/24 05:24:18;;;;;;;26.20;12.95;;;;;;;4.83;42.85;100784.53;4995267;28;20018;-83
2021/12/24 05:26:48;;;;;;;28.63;12.63;;;;;;;4.93;42.82;100775.91;4994777;28;20080;-83
2021/12/24 05:29:15;;;;;;;23.90;11.88;;;;;;;4.86;42.61;100773.69;4994925;28;20022;-84
2021/12/24 05:31:41;;;;;;;23.50;10.73;;;;;;;4.75;42.70;100786.72;4995973;28;20113;-84
2021/12/24 05:34:07;;;;;;;28.73;10.88;;;;;;;4.78;42.73;100771.44;4996054;28;20085;-84
2021/12/24 05:36:32;;;;;;;21.58;10.82;;;;;;;4.82;43.07;100769.47;4996057;28;20030;-83
2021/12/24 05:38:58;;;;;;;26.38;11.82;;;;;;;4.83;42.99;100765.88;4995022;28;20484;-84
2021/12/24 05:41:24;;;;;;;25.13;10.32;;;;;;;4.79;42.66;100774.97;4977657;28;20109;-83
2021/12/24 05:43:50;;;;;;;21.20;10.50;;;;;;;4.68;42.72;100777.38;4991177;28;20034;-79
2021/12/24 05:46:16;;;;;;;27.75;10.45;;;;;;;4.47;43.20;100786.50;4986082;28;20105;-80
2021/12/24 05:48:42;;;;;;;19.60;10.20;;;;;;;4.45;43.25;100777.75;4983392;28;20504;-80
2021/12/24 05:51:08;;;;;;;18.75;9.93;;;;;;;4.48;43.25;100772.25;4986891;28;20026;-79
2021/12/24 05:53:38;;;;;;;23.88;12.93;;;;;;;4.45;43.33;100783.06;4986815;28;20473;-80
2021/12/24 05:56:04;;;;;;;23.05;12.95;;;;;;;4.47;43.53;100771.38;4995386;28;20029;-79
2021/12/24 05:58:29;;;;;;;23.60;12.07;;;;;;;4.46;43.59;100768.81;4994276;28;20026;-81
2021/12/24 06:00:56;;;;;;;33.58;14.55;;;;;;;4.52;44.05;100779.13;4990105;28;20031;-79
2021/12/24 06:03:21;;;;;;;23.25;13.90;;;;;;;4.62;43.78;100772.34;4986228;28;20510;-80
2021/12/24 06:05:47;;;;;;;26.38;14.30;;;;;;;4.67;43.70;100778.31;5006814;28;20042;-82
2021/12/24 06:08:12;;;;;;;25.88;14.15;;;;;;;4.76;43.55;100775.13;5015806;28;20030;-84
2021/12/24 06:10:39;;;;;;;20.13;12.18;;;;;;;4.86;43.46;100784.34;5015792;28;20092;-84
2021/12/24 06:13:05;;;;;;;21.85;11.40;;;;;;;4.89;43.11;100776.19;5009342;28;20441;-83
2021/12/24 06:15:41;;;;;;;28.73;11.23;;;;;;;4.80;42.96;100774.03;4997939;28;20026;-85
2021/12/24 06:18:12;;;;;;;20.15;10.27;;;;;;;4.82;43.22;100757.00;4997821;28;20508;-88
2021/12/24 06:20:40;;;;;;;21.98;11.68;;;;;;;4.87;43.36;100760.28;4997961;28;20033;-85
2021/12/24 06:23:08;;;;;;;51.55;23.20;;;;;;;4.91;43.17;100756.50;4996928;28;20484;-80
2021/12/24 06:25:33;;;;;;;27.73;10.93;;;;;;;4.98;42.95;100750.81;4993068;28;20033;-79
2021/12/24 06:27:59;;;;;;;27.52;11.38;;;;;;;5.10;42.75;100755.47;4985695;28;20046;-78
2021/12/24 06:30:29;;;;;;;22.10;11.88;;;;;;;5.11;42.92;100746.50;4995616;28;20022;-78
2021/12/24 06:32:55;;;;;;;16.52;10.82;;;;;;;5.22;42.85;100750.28;4999422;28;20098;-77
2021/12/24 06:35:21;;;;;;;38.92;12.88;;;;;;;5.19;42.75;100750.47;5007538;28;20061;-78
2021/12/24 06:37:46;;;;;;;20.00;10.93;;;;;;;5.29;42.93;100748.13;4990543;28;20026;-78
2021/12/24 06:40:12;;;;;;;21.70;12.10;;;;;;;5.07;42.48;100692.53;4996666;28;20521;-78
2021/12/24 06:42:38;;;;;;;33.08;12.45;;;;;;;5.39;42.37;100741.28;4996318;28;20026;-78
2021/12/24 06:45:05;;;;;;;35.60;16.38;;;;;;;5.52;42.32;100739.63;4996319;28;20026;-77
2021/12/24 06:47:30;;;;;;;35.20;15.98;;;;;;;5.50;42.29;100734.38;4986779;28;20035;-77
2021/12/24 06:49:56;;;;;;;34.88;17.08;;;;;;;5.42;42.28;100731.31;4991612;28;20112;-76
2021/12/24 06:52:22;;;;;;;34.67;16.40;;;;;;;5.25;42.25;100707.44;4988081;28;20022;-78
2021/12/24 06:54:47;;;;;;;44.90;18.73;;;;;;;5.45;42.08;100715.13;4986296;28;20090;-78
2021/12/24 06:57:15;;;;;;;30.17;14.55;;;;;;;5.34;42.23;100701.59;4990403;28;20042;-80
2021/12/24 06:59:41;;;;;;;24.63;14.55;;;;;;;5.09;42.49;100690.63;4970661;28;20080;-81
2021/12/24 07:02:06;;;;;;;25.10;14.05;;;;;;;5.21;42.53;100710.38;4987282;28;20034;-77
2021/12/24 07:04:32;;;;;;;49.10;29.55;;;;;;;5.29;42.40;100713.47;4972242;28;20030;-76
2021/12/24 07:06:57;;;;;;;40.00;15.85;;;;;;;5.16;42.30;100692.00;4987241;28;20030;-80
2021/12/24 07:09:23;;;;;;;26.52;12.98;;;;;;;5.17;42.61;100688.34;4996054;28;20026;-80
2021/12/24 07:11:49;;;;;;;32.10;15.75;;;;;;;5.24;42.89;100699.53;4993553;28;20028;-82
2021/12/24 07:14:15;;;;;;;26.80;12.77;;;;;;;5.28;42.76;100691.28;4991385;28;20022;-80
2021/12/24 07:16:41;;;;;;;32.20;12.43;;;;;;;5.42;42.59;100693.97;4997130;28;20050;-79
2021/12/24 07:19:06;;;;;;;28.95;12.77;;;;;;;5.45;42.57;100687.59;4989246;28;20022;-81
2021/12/24 07:21:35;;;;;;;22.75;13.50;;;;;;;5.40;42.47;100685.22;4986467;28;20030;-79
2021/12/24 07:24:03;;;;;;;26.58;13.38;;;;;;;5.40;42.78;100685.22;4984713;28;20497;-84
2021/12/24 07:26:29;;;;;;;21.02;12.60;;;;;;;5.44;42.60;100686.72;4990510;28;20476;-83
2021/12/24 07:28:54;;;;;;;27.70;13.65;;;;;;;5.39;42.65;100696.81;4983430;28;20077;-81
2021/12/24 07:31:20;;;;;;;30.55;12.65;;;;;;;5.48;42.50;100682.94;4995376;28;20029;-86
2021/12/24 07:33:46;;;;;;;25.25;13.65;;;;;;;5.54;42.25;100675.50;4980117;28;20031;-84
2021/12/24 07:36:13;;;;;;;51.67;19.17;;;;;;;5.58;42.65;100671.72;4996791;28;20027;-86
2021/12/24 07:38:40;;;;;;;48.78;20.13;;;;;;;5.61;42.26;100683.06;4985255;28;20493;-86
2021/12/24 07:41:06;;;;;;;36.67;16.48;;;;;;;5.54;42.42;100675.50;4992095;28;20031;-78
2021/12/24 07:43:31;;;;;;;36.40;17.40;;;;;;;5.65;42.43;100667.75;4990581;28;20026;-82
2021/12/24 07:45:57;;;;;;;32.72;15.40;;;;;;;5.62;42.24;100658.13;4995877;28;20027;-82
2021/12/24 07:48:31;;;;;;;33.80;15.35;;;;;;;5.60;42.58;100669.81;4967240;28;20030;-82
2021/12/24 07:53:31;;;;;;;32.00;16.40;;;;;;;5.67;42.13;100665.84;4984467;28;20031;-80
2021/12/24 07:55:58;;;;;;;28.83;13.98;;;;;;;5.77;43.17;100656.31;4970882;28;20480;-79
2021/12/24 07:58:24;;;;;;;31.45;13.25;;;;;;;5.82;42.63;100655.09;4989719;28;20110;-80
2021/12/24 08:00:51;;;;;;;21.52;12.15;;;;;;;5.88;42.78;100659.22;4994767;28;20544;-81
2021/12/24 08:03:17;;;;;;;27.90;12.80;;;;;;;5.96;42.48;100667.63;4989115;28;20046;-79
2021/12/24 08:05:43;;;;;;;28.55;14.05;;;;;;;5.99;42.00;100664.78;4996128;28;20037;-79
2021/12/24 08:08:10;;;;;;;52.88;26.92;;;;;;;5.99;41.68;100656.75;4994396;28;20027;-84
2021/12/24 08:10:37;;;;;;;86.45;32.67;;;;;;;5.99;41.57;100656.75;4979194;28;20065;-79
2021/12/24 08:13:04;;;;;;;59.45;26.35;;;;;;;5.94;41.92;100632.16;4987816;28;20101;-81
2021/12/24 08:15:30;;;;;;;78.38;31.13;;;;;;;6.14;42.16;100639.78;4986009;28;20033;-80
2021/12/24 08:17:56;;;;;;;81.10;26.10;;;;;;;6.25;41.79;100626.59;4991514;28;20022;-81
2021/12/24 08:20:24;;;;;;;46.28;20.85;;;;;;;6.33;41.65;100624.28;4982139;28;20034;-78
2021/12/24 08:22:51;;;;;;;46.45;23.70;;;;;;;6.35;41.17;100610.84;4999901;28;20022;-78
2021/12/24 08:25:18;;;;;;;39.83;16.95;;;;;;;6.40;41.42;100636.31;4978366;28;20054;-79
2021/12/24 08:27:44;;;;;;;45.42;17.80;;;;;;;6.46;41.48;100619.00;4972319;28;20058;-83
2021/12/24 08:30:10;;;;;;;30.90;15.10;;;;;;;6.56;40.99;100621.00;4995247;28;20120;-79
2021/12/24 08:32:39;;;;;;;36.13;14.75;;;;;;;6.64;40.71;100616.97;4974621;28;20033;-82
2021/12/24 08:35:08;;;;;;;24.33;14.35;;;;;;;6.67;40.42;100622.09;4995132;28;20604;-89
2021/12/24 08:37:34;;;;;;;30.95;15.68;;;;;;;6.67;40.54;100622.09;4995750;28;20027;-83
2021/12/24 08:39:59;;;;;;;27.48;15.05;;;;;;;6.61;41.03;100612.69;4980547;28;20033;-84
2021/12/24 08:42:25;;;;;;;29.35;14.88;;;;;;;6.66;40.98;100609.72;4985439;28;20037;-85
2021/12/24 08:44:51;;;;;;;35.40;16.58;;;;;;;6.68;40.89;100602.44;4995787;28;20038;-82
2021/12/24 08:47:17;;;;;;;35.17;14.13;;;;;;;6.58;40.70;100592.38;4979170;28;20030;-87
2021/12/24 08:49:42;;;;;;;25.83;14.38;;;;;;;6.67;40.91;100584.69;4980920;28;20023;-80
2021/12/24 08:52:08;;;;;;;28.08;13.88;;;;;;;6.71;41.00;100572.84;4994009;28;20473;-78
2021/12/24 08:54:33;;;;;;;32.55;16.40;;;;;;;6.74;40.58;100565.50;4994782;28;20353;-81
2021/12/24 08:56:59;;;;;;;30.98;15.88;;;;;;;6.74;40.86;100569.97;4989935;28;20449;-78
2021/12/24 08:59:24;;;;;;;30.88;14.43;;;;;;;6.82;41.10;100565.00;4994221;28;20026;-82
2021/12/24 09:01:53;;;;;;;28.00;13.82;;;;;;;6.99;41.17;100570.06;4995400;28;20057;-86
2021/12/24 09:04:20;;;;;;;24.55;12.90;;;;;;;7.12;40.91;100550.38;4968586;28;20029;-89
2021/12/24 09:06:45;;;;;;;34.60;17.35;;;;;;;7.19;40.32;100545.47;4989156;28;20415;-82
2021/12/24 09:09:11;;;;;;;56.88;24.85;;;;;;;7.33;40.35;100548.06;4988831;28;20109;-79
2021/12/24 09:11:39;;;;;;;31.15;15.65;;;;;;;7.43;40.18;100533.06;4980813;28;20027;-86
2021/12/24 09:14:04;;;;;;;21.60;11.68;;;;;;;7.45;40.48;100531.16;4971683;28;20027;-77
2021/12/24 09:16:33;;;;;;;31.63;14.02;;;;;;;7.53;39.77;100527.94;4982509;28;20397;-78
2021/12/24 09:19:06;;;;;;;24.38;13.45;;;;;;;7.61;40.00;100529.09;4993403;28;20093;-86
2021/12/24 09:21:33;;;;;;;33.45;16.45;;;;;;;7.75;39.76;100533.50;4995184;28;20033;-81
2021/12/24 09:24:47;;;;;;;24.23;14.68;;;;;;;7.89;39.46;100525.31;5006188;28;20022;-86
2021/12/24 09:27:13;;;;;;;37.30;15.45;;;;;;;7.89;39.57;100492.34;4995231;28;20061;-88
2021/12/24 09:29:39;;;;;;;106.68;48.78;;;;;;;8.04;40.04;100512.66;4986888;28;20037;-85
2021/12/24 09:32:06;;;;;;;111.30;58.53;;;;;;;8.07;39.50;100502.56;4987720;28;20030;-82
2021/12/24 09:34:31;;;;;;;47.97;26.15;;;;;;;8.02;39.90;100502.03;4969960;28;20492;-78
2021/12/24 09:36:57;;;;;;;25.63;15.65;;;;;;;7.95;40.23;100491.91;4989644;28;20038;-85
2021/12/24 09:39:22;;;;;;;24.45;11.80;;;;;;;7.96;40.16;100493.59;4991336;28;20071;-81
2021/12/24 09:41:48;;;;;;;28.73;14.93;;;;;;;7.90;40.10;100486.00;4992369;28;20180;-86
2021/12/24 09:44:14;;;;;;;22.08;12.02;;;;;;;7.91;39.79;100482.38;4983496;28;20026;-84
2021/12/24 09:46:42;;;;;;;29.23;12.77;;;;;;;7.98;40.16;100481.81;4975661;28;20026;-79
2021/12/24 09:49:12;;;;;;;24.42;12.73;;;;;;;8.04;39.78;100470.63;4985543;28;20473;-81
2021/12/24 09:51:40;;;;;;;23.85;13.38;;;;;;;8.13;40.10;100466.47;4985125;28;20026;-81
2021/12/24 09:54:15;;;;;;;28.58;14.25;;;;;;;8.23;39.92;100470.13;4985527;28;20521;-81
2021/12/24 09:56:41;;;;;;;25.35;11.77;;;;;;;8.32;39.67;100455.25;4989282;28;20080;-84
2021/12/24 09:59:07;;;;;;;49.97;16.38;;;;;;;8.41;39.66;100449.22;4983002;28;20160;-80
2021/12/24 10:01:44;;;;;;;27.95;13.70;;;;;;;8.44;39.23;100441.78;4982714;28;20370;-85
2021/12/24 10:04:16;;;;;;;31.08;13.20;;;;;;;8.55;39.49;100439.16;4989041;28;20038;-89
2021/12/24 10:06:56;;;;;;;25.20;14.40;;;;;;;8.56;38.90;100427.44;4974595;28;20053;-82
2021/12/24 10:09:29;;;;;;;39.65;15.63;;;;;;;8.66;39.02;100425.78;4989764;28;20389;-85
2021/12/24 10:12:01;;;;;;;36.92;17.02;;;;;;;8.77;38.79;100422.28;5000929;28;20034;-85
2021/12/24 10:14:32;;;;;;;56.08;20.30;;;;;;;8.87;39.09;100406.34;4998373;28;20026;-83
2021/12/24 10:16:59;;;;;;;34.72;15.02;;;;;;;8.92;39.04;100410.38;5001048;28;20027;-80
2021/12/24 10:19:25;;;;;;;40.42;14.68;;;;;;;8.93;39.00;100398.66;4992828;28;20026;-84
2021/12/24 10:22:03;;;;;;;34.63;13.80;;;;;;;9.02;38.81;100395.25;4962393;28;20042;-84
2021/12/24 10:24:30;;;;;;;34.35;16.65;;;;;;;9.02;39.07;100392.56;4980715;28;20054;-81
2021/12/24 10:26:59;;;;;;;37.15;18.17;;;;;;;9.15;39.05;100387.06;4983961;28;20026;-85
2021/12/24 10:29:39;;;;;;;24.80;12.88;;;;;;;9.24;38.33;100389.03;4987975;28;20037;-85
2021/12/24 10:32:14;;;;;;;26.48;12.32;;;;;;;9.23;38.68;100382.81;4989986;28;20106;-87
2021/12/24 10:34:42;;;;;;;20.27;10.85;;;;;;;9.24;38.71;100376.47;4996207;28;20022;-86
2021/12/24 10:37:18;;;;;;;24.48;13.48;;;;;;;9.33;38.89;100369.50;4984513;28;20026;-89
2021/12/24 10:39:47;;;;;;;41.58;12.68;;;;;;;9.35;38.73;100362.22;4979315;28;20109;-85
2021/12/24 10:42:36;;;;;;;31.58;14.70;;;;;;;9.37;38.86;100364.75;4975769;28;20109;-82
2021/12/24 10:45:07;;;;;;;27.23;15.00;;;;;;;9.41;39.02;100353.66;5000169;28;20085;-89
2021/12/24 10:47:37;;;;;;;32.03;12.32;;;;;;;9.26;38.55;100338.81;5002213;28;20042;-81
2021/12/24 10:50:33;;;;;;;17.23;10.88;;;;;;;9.13;38.92;100327.34;4983084;28;20038;-86
2021/12/24 10:53:19;;;;;;;30.73;14.82;;;;;;;9.30;38.77;100316.09;4998340;28;20018;-80
2021/12/24 10:55:51;;;;;;;23.95;12.90;;;;;;;9.31;38.27;100309.75;4997615;28;20034;-87
2021/12/24 10:58:25;;;;;;;31.60;17.00;;;;;;;9.29;38.73;100309.03;4997589;28;20026;-80
2021/12/24 11:00:56;;;;;;;27.92;12.30;;;;;;;9.38;38.42;100300.22;4973123;28;20030;-83
2021/12/24 11:03:25;;;;;;;27.45;10.95;;;;;;;9.52;38.42;100299.94;4978514;28;20021;-84
2021/12/24 11:06:06;;;;;;;25.30;13.55;;;;;;;9.59;38.23;100292.25;4982543;28;20046;-81
2021/12/24 11:08:32;;;;;;;21.73;10.55;;;;;;;9.81;38.15;100282.25;4971069;28;20026;-82
2021/12/24 11:10:59;;;;;;;26.60;13.82;;;;;;;9.96;38.15;100279.28;4979934;28;20105;-83
2021/12/24 11:13:32;;;;;;;22.38;11.73;;;;;;;10.03;37.82;100284.00;4981578;28;20022;-83
2021/12/24 11:16:02;;;;;;;22.42;10.93;;;;;;;10.02;37.89;100265.34;4989009;28;20030;-79
2021/12/24 11:18:34;;;;;;;20.48;11.52;;;;;;;10.19;38.07;100264.75;4985082;28;20014;-81
2021/12/24 11:21:05;;;;;;;19.20;11.07;;;;;;;10.51;37.91;100260.16;4979705;28;20027;-84
2021/12/24 11:23:38;;;;;;;22.08;11.10;;;;;;;10.66;37.45;100247.22;4978955;28;20465;-89
2021/12/24 11:26:09;;;;;;;20.17;11.20;;;;;;;10.88;37.07;100263.19;4983541;28;20110;-85
2021/12/24 11:28:36;;;;;;;24.17;12.90;;;;;;;11.14;36.17;100263.53;5000847;28;20120;-87
2021/12/24 11:31:08;;;;;;;27.90;12.57;;;;;;;10.84;36.56;100235.69;4998201;28;20038;-84
2021/12/24 11:33:37;;;;;;;20.98;11.38;;;;;;;10.97;36.84;100251.59;4987614;28;20058;-87
2021/12/24 11:36:06;;;;;;;26.25;11.75;;;;;;;10.82;36.40;100220.69;4988972;28;20062;-86
2021/12/24 11:38:38;;;;;;;30.33;11.02;;;;;;;10.97;36.66;100240.84;4981214;28;20427;-88
2021/12/24 11:41:06;;;;;;;43.97;22.77;;;;;;;11.16;36.83;100237.34;4983222;28;20518;-91
2021/12/24 11:43:37;;;;;;;40.00;14.45;;;;;;;11.18;36.42;100221.91;4997027;28;20273;-83
2021/12/24 11:46:05;;;;;;;30.58;11.93;;;;;;;11.36;36.20;100244.47;4989165;28;20039;-87
2021/12/24 11:48:33;;;;;;;32.35;12.00;;;;;;;11.46;36.43;100248.88;4993760;28;20038;-86
2021/12/24 11:51:13;;;;;;;37.53;12.18;;;;;;;11.53;36.25;100240.25;4984894;28;20019;-82
2021/12/24 11:53:40;;;;;;;26.50;10.82;;;;;;;11.36;36.15;100237.25;4996745;28;20026;-80
2021/12/24 11:56:08;;;;;;;22.35;14.98;;;;;;;11.53;36.57;100249.16;4996908;28;20010;-84
2021/12/24 11:58:43;;;;;;;16.48;10.75;;;;;;;11.54;36.44;100234.72;4983045;28;20497;-87
2021/12/24 12:01:08;;;;;;;19.73;10.05;;;;;;;11.47;35.85;100228.16;4986402;28;20065;-81
2021/12/24 12:03:57;;;;;;;22.02;10.93;;;;;;;11.53;36.23;100227.59;4998169;28;20022;-85
2021/12/24 12:06:26;;;;;;;19.85;10.00;;;;;;;11.34;36.73;100230.31;4980253;28;20452;-84
2021/12/24 12:08:56;;;;;;;37.70;13.68;;;;;;;11.25;36.71;100223.88;4999716;28;20065;-85
2021/12/24 12:11:34;;;;;;;20.55;10.70;;;;;;;11.27;36.88;100226.47;4982537;28;20018;-84
2021/12/24 12:14:23;;;;;;;19.10;9.75;;;;;;;11.22;36.66;100226.84;4980917;28;20030;-87
2021/12/24 12:16:55;;;;;;;30.83;11.63;;;;;;;11.28;36.56;100222.78;4997804;28;20060;-84
2021/12/24 12:22:26;;;;;;;23.38;10.00;;;;;;;11.15;37.20;100219.50;4995645;28;20037;-82
2021/12/24 12:24:57;;;;;;;27.73;10.98;;;;;;;11.05;37.55;100216.78;4993851;28;20060;-81
2021/12/24 12:27:54;;;;;;;23.92;12.10;;;;;;;11.13;37.92;100208.03;4977619;28;20420;-82
2021/12/24 12:30:21;;;;;;;21.75;11.18;;;;;;;11.17;38.06;100206.72;4975820;28;20058;-81
2021/12/24 12:32:48;;;;;;;24.48;11.93;;;;;;;11.16;38.03;100203.19;4973632;28;20464;-78
2021/12/24 12:35:15;;;;;;;23.95;9.85;;;;;;;11.19;38.17;100200.22;4999834;28;20023;-83
2021/12/24 12:37:45;;;;;;;17.08;10.32;;;;;;;11.06;38.15;100174.56;4980142;28;20539;-81
2021/12/24 12:40:13;;;;;;;27.13;12.80;;;;;;;11.18;38.11;100178.84;4979821;28;20496;-82
2021/12/24 12:42:51;;;;;;;28.77;15.30;;;;;;;11.15;38.33;100173.75;4977370;28;20030;-85
2021/12/24 12:45:20;;;;;;;31.27;16.55;;;;;;;11.08;38.32;100169.88;4977211;28;20389;-83
2021/12/24 12:47:54;;;;;;;27.90;15.30;;;;;;;11.09;39.03;100174.28;4959526;28;20030;-84
2021/12/24 12:50:21;;;;;;;26.30;13.23;;;;;;;11.03;38.86;100170.31;4977934;28;20026;-85
2021/12/24 12:52:47;;;;;;;29.70;13.93;;;;;;;11.03;38.86;100182.91;4984519;28;20041;-81
2021/12/24 12:55:31;;;;;;;30.30;16.10;;;;;;;11.05;39.29;100191.69;4988192;28;20050;-79
2021/12/24 12:58:19;;;;;;;22.42;11.27;;;;;;;10.95;38.84;100182.78;4987057;28;20026;-78
2021/12/24 13:01:06;;;;;;;30.85;16.98;;;;;;;10.86;38.92;100173.66;4993978;28;20018;-78
2021/12/24 13:03:33;;;;;;;29.23;15.65;;;;;;;10.71;39.45;100170.50;4994718;28;20030;-80